Time;durP1;ratioP1;P1;durP2;ratioP2;P2;SDS_P1;SDS_P2;PMS_P1;PMS_P2;Temp;Humidity;BMP_temperature;BMP_pressure;BME280_temperature;BME280_humidity;BME280_pressure;Samples;Min_cycle;Max_cycle;Signal;HPM_P1;HPM_P2
2022/03/23 00:00:46;;;;;;;14.10;11.03;;;9.40;75.90;;;;;;5013317;28;20501;-68
2022/03/23 00:03:13;;;;;;;16.10;11.60;;;9.30;76.40;;;;;;5013285;28;20279;-68
2022/03/23 00:05:43;;;;;;;12.70;10.67;;;9.20;77.00;;;;;;5014118;28;20262;-68
2022/03/23 00:08:09;;;;;;;21.97;12.40;;;9.30;77.40;;;;;;5013601;28;20461;-70
2022/03/23 00:10:35;;;;;;;17.87;11.83;;;9.30;77.50;;;;;;5013614;28;20453;-70
2022/03/23 00:13:01;;;;;;;18.87;12.80;;;9.30;77.60;;;;;;5013384;28;20213;-69
2022/03/23 00:15:30;;;;;;;13.60;11.50;;;9.20;78.10;;;;;;5014009;28;20432;-69
2022/03/23 00:17:56;;;;;;;15.33;13.23;;;9.20;78.40;;;;;;5014072;28;20446;-69
2022/03/23 00:20:22;;;;;;;16.00;11.40;;;9.20;78.60;;;;;;5013147;28;20429;-69
2022/03/23 00:22:48;;;;;;;15.60;11.40;;;9.20;78.70;;;;;;5014113;28;20440;-69
2022/03/23 00:25:14;;;;;;;14.40;11.17;;;9.10;78.70;;;;;;5011454;28;20421;-70
2022/03/23 00:27:40;;;;;;;15.57;11.70;;;9.00;79.00;;;;;;5013966;28;20648;-70
2022/03/23 00:30:06;;;;;;;15.30;11.90;;;8.90;79.70;;;;;;5013707;28;20219;-69
2022/03/23 00:32:32;;;;;;;18.67;12.00;;;8.90;80.20;;;;;;5014473;28;20445;-69
2022/03/23 00:34:58;;;;;;;15.10;12.67;;;8.90;80.50;;;;;;5014661;28;20440;-69
2022/03/23 00:37:23;;;;;;;14.83;12.47;;;8.90;80.70;;;;;;5015120;28;20202;-69
2022/03/23 00:39:49;;;;;;;20.20;12.73;;;8.90;81.00;;;;;;5018344;28;20170;-69
2022/03/23 00:42:15;;;;;;;14.40;11.80;;;8.90;81.30;;;;;;5019165;28;20185;-69
2022/03/23 00:44:41;;;;;;;18.00;12.20;;;8.90;81.50;;;;;;5018407;28;20442;-69
2022/03/23 00:47:07;;;;;;;14.70;12.13;;;8.90;81.70;;;;;;5019837;28;20453;-69
2022/03/23 00:49:33;;;;;;;14.47;10.80;;;8.90;81.90;;;;;;5019579;28;20757;-69
2022/03/23 00:51:58;;;;;;;13.70;11.33;;;8.80;82.30;;;;;;5019903;28;20183;-68
2022/03/23 00:54:24;;;;;;;14.50;12.33;;;8.80;82.60;;;;;;5019092;28;20249;-68
2022/03/23 00:56:51;;;;;;;16.20;12.97;;;8.80;82.80;;;;;;5017425;28;20179;-68
2022/03/23 00:59:22;;;;;;;13.70;12.00;;;8.70;83.60;;;;;;5015714;28;20458;-69
2022/03/23 01:01:48;;;;;;;16.30;11.90;;;8.60;84.40;;;;;;5016563;28;20437;-68
2022/03/23 01:04:14;;;;;;;14.20;12.47;;;8.30;85.40;;;;;;5016962;28;20427;-68
2022/03/23 01:06:41;;;;;;;16.40;12.30;;;8.20;86.70;;;;;;5015131;28;20501;-68
2022/03/23 01:09:06;;;;;;;16.37;11.97;;;8.10;87.60;;;;;;5015729;28;20471;-68
2022/03/23 01:11:32;;;;;;;15.10;12.03;;;8.00;88.90;;;;;;5015929;28;20423;-68
2022/03/23 01:13:58;;;;;;;13.97;11.73;;;8.00;89.90;;;;;;5015992;28;20215;-68
2022/03/23 01:16:23;;;;;;;20.43;12.10;;;8.00;90.20;;;;;;5016241;28;20203;-68
2022/03/23 01:18:49;;;;;;;14.20;11.10;;;8.10;90.20;;;;;;5016196;28;20282;-68
2022/03/23 01:21:16;;;;;;;17.67;12.60;;;8.10;90.10;;;;;;5020462;28;20188;-69
2022/03/23 01:23:42;;;;;;;15.37;12.23;;;8.20;90.20;;;;;;5023511;28;20222;-68
2022/03/23 01:26:07;;;;;;;17.03;12.07;;;8.00;90.50;;;;;;5018414;28;20420;-69
2022/03/23 01:28:33;;;;;;;15.20;11.93;;;7.90;90.90;;;;;;5019570;28;20443;-68
2022/03/23 01:30:59;;;;;;;13.40;11.83;;;7.80;91.20;;;;;;5018605;28;20169;-69
2022/03/23 01:33:25;;;;;;;17.40;13.40;;;7.70;91.60;;;;;;5016592;28;20273;-69
2022/03/23 01:35:51;;;;;;;17.90;12.13;;;7.60;91.80;;;;;;5016596;28;20418;-69
2022/03/23 01:38:16;;;;;;;15.47;12.10;;;7.50;92.10;;;;;;5016904;28;20283;-68
2022/03/23 01:40:42;;;;;;;15.73;11.73;;;7.40;92.80;;;;;;5016991;28;20195;-68
2022/03/23 01:43:07;;;;;;;13.80;11.40;;;7.30;93.20;;;;;;5016338;28;20567;-68
2022/03/23 01:45:33;;;;;;;17.80;12.53;;;7.30;93.70;;;;;;5017099;28;20177;-68
2022/03/23 01:47:58;;;;;;;18.00;13.13;;;7.40;93.90;;;;;;5015545;28;20203;-69
2022/03/23 01:50:24;;;;;;;18.00;13.33;;;7.50;93.80;;;;;;5014271;28;20180;-69
2022/03/23 01:52:49;;;;;;;17.83;12.33;;;7.60;93.60;;;;;;5015671;28;20539;-68
2022/03/23 01:55:17;;;;;;;15.30;12.83;;;7.70;93.50;;;;;;5015860;28;20196;-69
2022/03/23 01:57:46;;;;;;;17.40;12.80;;;7.80;93.40;;;;;;5015573;28;20196;-68
2022/03/23 02:00:14;;;;;;;15.73;12.47;;;7.80;93.20;;;;;;5015752;28;20833;-68
2022/03/23 02:02:43;;;;;;;15.37;11.93;;;7.90;93.10;;;;;;5015402;28;20972;-69
2022/03/23 02:05:09;;;;;;;16.93;13.27;;;7.90;92.90;;;;;;5015732;28;20416;-69
2022/03/23 02:07:35;;;;;;;13.30;11.90;;;7.80;92.80;;;;;;5015662;28;20415;-68
2022/03/23 02:10:00;;;;;;;15.40;13.00;;;7.90;92.80;;;;;;5015337;28;20984;-68
2022/03/23 02:12:30;;;;;;;14.77;12.27;;;7.80;92.80;;;;;;5015032;28;20190;-68
2022/03/23 02:14:59;;;;;;;15.13;11.93;;;7.80;92.90;;;;;;5014911;28;20200;-68
2022/03/23 02:17:27;;;;;;;17.20;13.30;;;7.80;93.00;;;;;;5014895;28;21012;-69
2022/03/23 02:19:52;;;;;;;18.47;13.20;;;7.80;93.00;;;;;;5015110;28;20900;-68
2022/03/23 02:22:18;;;;;;;17.50;12.40;;;7.80;93.20;;;;;;5014716;28;20434;-68
2022/03/23 02:24:46;;;;;;;15.40;12.27;;;7.80;93.30;;;;;;5014684;28;20200;-69
2022/03/23 02:27:13;;;;;;;18.87;13.50;;;7.80;93.40;;;;;;5014984;28;20182;-69
2022/03/23 02:29:38;;;;;;;16.90;13.07;;;7.80;93.40;;;;;;5014462;28;20420;-68
2022/03/23 02:32:05;;;;;;;14.70;12.40;;;7.80;93.50;;;;;;5015526;28;20432;-69
2022/03/23 02:34:31;;;;;;;13.60;12.20;;;7.90;93.60;;;;;;5016000;28;20438;-68
2022/03/23 02:36:58;;;;;;;19.03;13.87;;;7.80;93.70;;;;;;5015622;28;20419;-68
2022/03/23 02:39:27;;;;;;;19.00;12.77;;;7.90;93.80;;;;;;5014074;28;20446;-68
2022/03/23 02:41:54;;;;;;;16.00;13.23;;;7.80;93.90;;;;;;5014317;28;20417;-68
2022/03/23 02:44:20;;;;;;;16.67;12.30;;;7.70;94.30;;;;;;5012814;28;20475;-68
2022/03/23 02:46:45;;;;;;;16.87;13.07;;;7.60;94.50;;;;;;5012778;28;20426;-68
2022/03/23 02:49:11;;;;;;;16.20;13.67;;;7.50;94.90;;;;;;5014420;28;20772;-69
2022/03/23 02:51:38;;;;;;;15.70;12.40;;;7.30;95.40;;;;;;5013885;28;20177;-68
2022/03/23 03:02:41;;;;;;;17.30;12.80;;;7.40;95.80;;;;;;5015448;28;20381;-69
2022/03/23 03:05:09;;;;;;;17.90;12.70;;;7.40;95.60;;;;;;5015099;28;20507;-69
2022/03/23 03:10:21;;;;;;;19.80;12.80;;;7.40;95.60;;;;;;5014732;28;20441;-69
2022/03/23 03:12:48;;;;;;;17.10;12.93;;;7.40;95.70;;;;;;5014095;28;20465;-69
2022/03/23 03:15:15;;;;;;;18.40;13.00;;;7.40;95.70;;;;;;5014780;28;20407;-69
2022/03/23 03:17:41;;;;;;;18.73;14.03;;;7.40;95.70;;;;;;5013423;28;20458;-68
2022/03/23 03:20:07;;;;;;;18.80;13.97;;;7.50;96.10;;;;;;5015166;28;20419;-69
2022/03/23 03:22:35;;;;;;;15.70;12.70;;;7.40;95.70;;;;;;5013428;28;20408;-69
2022/03/23 03:25:01;;;;;;;15.67;12.77;;;7.40;95.80;;;;;;5007579;28;20526;-69
2022/03/23 03:27:26;;;;;;;14.80;12.63;;;7.30;96.10;;;;;;5009005;28;20761;-69
2022/03/23 03:29:52;;;;;;;18.87;13.17;;;7.30;96.20;;;;;;5007250;28;20419;-68
2022/03/23 03:32:17;;;;;;;17.40;13.60;;;7.40;96.10;;;;;;5006665;28;20178;-69
2022/03/23 03:34:43;;;;;;;17.33;13.20;;;7.40;96.00;;;;;;5004655;28;20194;-69
2022/03/23 03:37:09;;;;;;;17.50;12.97;;;7.40;95.90;;;;;;5007361;28;20176;-69
2022/03/23 03:39:34;;;;;;;15.47;13.33;;;7.40;95.90;;;;;;5008085;28;20926;-69
2022/03/23 03:42:01;;;;;;;13.63;12.20;;;7.40;95.90;;;;;;5005044;28;20188;-69
2022/03/23 03:44:27;;;;;;;16.17;13.20;;;7.40;95.90;;;;;;5005401;28;20195;-70
2022/03/23 03:46:52;;;;;;;18.43;13.60;;;7.40;95.90;;;;;;5005846;28;20498;-69
2022/03/23 03:49:18;;;;;;;16.87;13.37;;;7.40;95.90;;;;;;5005483;28;20476;-70
2022/03/23 03:51:44;;;;;;;15.70;12.90;;;7.30;96.00;;;;;;5009673;28;20175;-70
2022/03/23 03:54:10;;;;;;;17.73;14.10;;;7.20;96.30;;;;;;5013250;28;20201;-69
2022/03/23 03:56:36;;;;;;;18.87;13.27;;;7.10;96.50;;;;;;5011632;28;20408;-69
2022/03/23 03:59:01;;;;;;;19.77;12.50;;;7.20;96.70;;;;;;5012984;28;20489;-68
2022/03/23 04:01:27;;;;;;;16.37;12.30;;;7.20;96.70;;;;;;5012758;28;20180;-69
2022/03/23 04:03:52;;;;;;;19.67;12.73;;;7.20;96.70;;;;;;5012495;28;20299;-70
2022/03/23 04:06:18;;;;;;;18.80;13.73;;;7.20;96.60;;;;;;5013110;28;20651;-69
2022/03/23 04:08:43;;;;;;;14.87;12.67;;;7.30;96.60;;;;;;5013422;28;20182;-69
2022/03/23 04:11:09;;;;;;;15.90;12.93;;;7.30;96.50;;;;;;5012308;28;20636;-68
2022/03/23 04:13:34;;;;;;;18.43;13.17;;;7.30;96.60;;;;;;5011594;28;20291;-69
2022/03/23 04:16:00;;;;;;;14.00;11.60;;;7.20;96.70;;;;;;5012741;28;20182;-69
2022/03/23 04:18:26;;;;;;;15.00;12.97;;;7.20;96.80;;;;;;4995052;28;20219;-69
2022/03/23 04:20:52;;;;;;;16.10;13.40;;;7.20;97.00;;;;;;5012482;28;20187;-69
2022/03/23 04:23:18;;;;;;;15.00;12.27;;;7.10;97.10;;;;;;5012289;28;20435;-69
2022/03/23 04:25:43;;;;;;;17.20;12.17;;;7.00;97.00;;;;;;5013042;28;20184;-69
2022/03/23 04:28:09;;;;;;;16.53;13.20;;;7.00;97.00;;;;;;5012963;28;20196;-69
2022/03/23 04:30:34;;;;;;;22.80;13.80;;;7.00;97.20;;;;;;5013496;28;20670;-69
2022/03/23 04:33:00;;;;;;;16.47;12.67;;;6.90;97.40;;;;;;5014992;28;20576;-69
2022/03/23 04:35:26;;;;;;;16.90;13.07;;;6.80;97.70;;;;;;5012729;28;20201;-69
2022/03/23 04:37:52;;;;;;;19.53;13.73;;;6.80;98.10;;;;;;5011622;28;20493;-68
2022/03/23 04:40:18;;;;;;;18.90;14.53;;;6.80;98.20;;;;;;5013085;28;21077;-69
2022/03/23 04:42:45;;;;;;;19.13;13.70;;;6.80;98.10;;;;;;5012898;28;20588;-68
2022/03/23 04:45:12;;;;;;;16.83;13.13;;;6.80;98.00;;;;;;5012635;28;20476;-68
2022/03/23 04:47:38;;;;;;;19.10;14.00;;;6.80;98.00;;;;;;5013148;28;20410;-68
2022/03/23 04:50:06;;;;;;;17.63;12.27;;;6.80;98.10;;;;;;5013627;28;20418;-68
2022/03/23 04:52:32;;;;;;;14.10;11.90;;;6.80;98.10;;;;;;5012782;28;20415;-68
2022/03/23 04:54:57;;;;;;;18.30;14.10;;;6.80;98.20;;;;;;5012950;28;20435;-68
2022/03/23 04:57:26;;;;;;;16.33;13.20;;;6.70;98.30;;;;;;5038166;22;20521;-68
2022/03/23 04:59:53;;;;;;;17.40;13.10;;;6.80;98.40;;;;;;4989848;28;20273;-68
2022/03/23 05:02:18;;;;;;;18.10;13.33;;;6.70;98.40;;;;;;4987500;28;20514;-68
2022/03/23 05:04:45;;;;;;;19.70;14.07;;;6.70;98.40;;;;;;4986563;28;20404;-68
2022/03/23 05:07:11;;;;;;;16.13;12.33;;;6.70;98.50;;;;;;4985339;28;20180;-68
2022/03/23 05:09:36;;;;;;;21.40;13.37;;;6.70;98.60;;;;;;4981539;28;20490;-69
2022/03/23 05:12:02;;;;;;;20.37;13.70;;;6.70;98.60;;;;;;4982070;28;20196;-70
2022/03/23 05:14:28;;;;;;;21.00;14.00;;;6.70;98.70;;;;;;4980628;28;20177;-69
2022/03/23 05:16:53;;;;;;;17.50;14.10;;;6.60;98.70;;;;;;4982146;28;20177;-69
2022/03/23 05:19:19;;;;;;;20.83;13.23;;;6.70;98.80;;;;;;4981462;28;20214;-69
2022/03/23 05:21:45;;;;;;;21.00;13.20;;;6.70;98.70;;;;;;4980292;28;20177;-69
2022/03/23 05:24:10;;;;;;;17.20;13.30;;;6.60;98.70;;;;;;4981360;28;20594;-69
2022/03/23 05:26:36;;;;;;;16.27;13.30;;;6.60;98.90;;;;;;4985743;28;20498;-69
2022/03/23 05:29:02;;;;;;;19.97;13.47;;;6.50;99.00;;;;;;4988116;28;20677;-68
2022/03/23 05:31:28;;;;;;;17.23;14.33;;;6.50;98.90;;;;;;4986016;28;20185;-69
2022/03/23 05:33:53;;;;;;;16.03;14.10;;;6.60;98.90;;;;;;4976337;28;20428;-70
2022/03/23 05:36:19;;;;;;;18.00;14.60;;;6.60;98.80;;;;;;4975678;28;20622;-70
2022/03/23 05:38:44;;;;;;;19.30;13.83;;;6.60;98.70;;;;;;4975404;28;20701;-70
2022/03/23 05:41:10;;;;;;;24.50;14.37;;;6.50;98.70;;;;;;4975995;28;20177;-69
2022/03/23 05:43:35;;;;;;;18.23;14.03;;;6.50;98.70;;;;;;4975390;28;20725;-69
2022/03/23 05:46:01;;;;;;;19.33;14.20;;;6.50;98.70;;;;;;4980652;28;20235;-69
2022/03/23 05:48:26;;;;;;;18.80;14.50;;;6.40;98.80;;;;;;4986900;28;20201;-69
2022/03/23 05:50:52;;;;;;;19.73;14.23;;;6.50;99.00;;;;;;4984107;28;20646;-69
2022/03/23 05:53:17;;;;;;;20.60;14.10;;;6.50;98.90;;;;;;4974523;28;20185;-69
2022/03/23 05:55:43;;;;;;;17.77;13.33;;;6.60;98.90;;;;;;4975609;28;20184;-69
2022/03/23 05:58:09;;;;;;;16.53;13.27;;;6.60;98.90;;;;;;4974108;28;20295;-69
2022/03/23 06:00:34;;;;;;;18.73;14.30;;;6.60;99.00;;;;;;4969002;28;20304;-69
2022/03/23 06:03:00;;;;;;;15.50;13.30;;;6.60;98.90;;;;;;4972803;28;20523;-70
2022/03/23 06:05:26;;;;;;;18.80;13.93;;;6.60;98.90;;;;;;4974635;28;20222;-69
2022/03/23 06:07:51;;;;;;;16.07;12.73;;;6.60;98.90;;;;;;4973591;28;20228;-69
2022/03/23 06:10:17;;;;;;;21.87;14.43;;;6.50;99.00;;;;;;4953198;28;20209;-69
2022/03/23 06:12:42;;;;;;;18.37;14.23;;;6.60;98.90;;;;;;4973264;28;20228;-69
2022/03/23 06:15:10;;;;;;;19.13;15.03;;;6.60;98.70;;;;;;4954997;28;20753;-69
2022/03/23 06:17:36;;;;;;;18.53;13.20;;;6.60;98.60;;;;;;4954909;28;20205;-68
2022/03/23 06:20:03;;;;;;;21.07;14.90;;;6.60;98.70;;;;;;4954010;28;20576;-69
2022/03/23 06:22:29;;;;;;;18.33;13.93;;;6.60;98.70;;;;;;4953481;28;20458;-69
2022/03/23 06:24:54;;;;;;;16.60;13.90;;;6.60;98.60;;;;;;4954330;28;20442;-68
2022/03/23 06:27:20;;;;;;;22.03;16.20;;;6.60;98.50;;;;;;4954313;28;20316;-68
2022/03/23 06:29:46;;;;;;;22.80;15.77;;;6.70;98.60;;;;;;4935504;28;20212;-68
2022/03/23 06:32:12;;;;;;;18.53;14.33;;;6.60;98.60;;;;;;4960736;28;20249;-69
2022/03/23 06:34:38;;;;;;;20.13;15.00;;;6.70;98.60;;;;;;4970700;28;20428;-68
2022/03/23 06:37:04;;;;;;;21.23;14.67;;;6.70;98.70;;;;;;4971915;28;20465;-69
2022/03/23 06:39:31;;;;;;;24.70;15.87;;;6.70;98.70;;;;;;4971449;28;20777;-69
2022/03/23 06:41:56;;;;;;;22.60;16.23;;;6.70;98.80;;;;;;4971392;28;20224;-69
2022/03/23 06:44:22;;;;;;;23.13;15.83;;;6.80;98.90;;;;;;4973065;28;20432;-68
2022/03/23 06:46:48;;;;;;;21.50;14.87;;;6.80;98.90;;;;;;4968554;28;20225;-69
2022/03/23 06:49:14;;;;;;;19.40;14.13;;;6.80;98.90;;;;;;4966116;28;20224;-69
2022/03/23 06:51:39;;;;;;;21.00;15.93;;;6.90;98.80;;;;;;4969678;28;20256;-70
2022/03/23 06:54:05;;;;;;;17.67;14.70;;;6.90;98.80;;;;;;4970459;28;21076;-71
2022/03/23 06:56:31;;;;;;;39.40;18.73;;;7.00;98.70;;;;;;4970575;28;20174;-69
2022/03/23 06:58:56;;;;;;;25.23;16.07;;;7.00;98.70;;;;;;4970095;28;20219;-70
2022/03/23 07:01:25;;;;;;;23.63;16.40;;;7.00;98.60;;;;;;4970576;28;20259;-70
2022/03/23 07:03:54;;;;;;;20.23;14.60;;;7.10;98.60;;;;;;4952306;28;20266;-70
2022/03/23 07:06:19;;;;;;;21.27;15.40;;;7.10;98.50;;;;;;4970149;28;20560;-70
2022/03/23 07:11:30;;;;;;;22.13;15.43;;;7.30;98.30;;;;;;4969915;28;20178;-70
2022/03/23 07:13:56;;;;;;;20.10;15.97;;;7.30;98.10;;;;;;4969406;28;20411;-71
2022/03/23 07:16:22;;;;;;;25.33;16.30;;;7.40;98.00;;;;;;4970218;28;20184;-69
2022/03/23 07:18:49;;;;;;;28.03;17.50;;;7.40;98.00;;;;;;4969578;28;20516;-70
2022/03/23 07:21:14;;;;;;;21.33;17.10;;;7.50;98.00;;;;;;4952138;28;20416;-70
2022/03/23 07:23:40;;;;;;;34.07;17.17;;;7.60;97.80;;;;;;4969403;28;21135;-70
2022/03/23 07:26:06;;;;;;;21.33;17.00;;;7.60;97.60;;;;;;4969547;28;20190;-71
2022/03/23 07:28:32;;;;;;;26.50;16.10;;;7.70;97.30;;;;;;4969716;28;20211;-70
2022/03/23 07:30:59;;;;;;;22.03;17.30;;;7.80;97.10;;;;;;4969181;28;20425;-70
2022/03/23 07:33:25;;;;;;;22.83;15.93;;;7.80;96.90;;;;;;4969707;28;20424;-70
2022/03/23 07:35:51;;;;;;;23.87;16.97;;;7.90;96.70;;;;;;4968021;28;20420;-70
2022/03/23 07:38:17;;;;;;;23.10;16.00;;;8.00;96.50;;;;;;4970162;28;20243;-70
2022/03/23 07:40:42;;;;;;;20.07;15.77;;;8.10;96.20;;;;;;4969992;28;20440;-71
2022/03/23 07:43:08;;;;;;;23.57;16.57;;;8.20;96.00;;;;;;4969399;28;20266;-70
2022/03/23 07:45:33;;;;;;;26.30;17.73;;;8.30;95.80;;;;;;4969612;28;20169;-70
2022/03/23 07:47:59;;;;;;;21.10;15.97;;;8.40;95.60;;;;;;4968642;28;20230;-70
2022/03/23 07:50:25;;;;;;;22.47;17.17;;;8.50;95.30;;;;;;4969758;28;20654;-70
2022/03/23 07:52:51;;;;;;;22.33;16.13;;;8.50;95.20;;;;;;4969312;28;20184;-71
2022/03/23 07:55:17;;;;;;;21.10;15.83;;;8.60;94.60;;;;;;4969020;28;20426;-71
2022/03/23 07:57:43;;;;;;;22.33;15.70;;;8.70;94.40;;;;;;4969535;28;20476;-70
2022/03/23 08:00:09;;;;;;;18.23;15.73;;;8.90;94.30;;;;;;4969401;28;20412;-70
2022/03/23 08:02:35;;;;;;;19.93;15.60;;;9.00;94.00;;;;;;4969177;28;20263;-70
2022/03/23 08:05:00;;;;;;;21.30;16.10;;;9.10;93.80;;;;;;4969055;28;20415;-71
2022/03/23 08:07:26;;;;;;;23.73;16.77;;;9.20;93.50;;;;;;4970733;28;20212;-71
2022/03/23 08:09:51;;;;;;;23.27;17.40;;;9.30;93.40;;;;;;4972091;28;20191;-71
2022/03/23 08:12:17;;;;;;;18.67;15.70;;;9.40;93.10;;;;;;4970004;28;20649;-71
2022/03/23 08:14:46;;;;;;;20.63;16.27;;;9.50;92.90;;;;;;4969538;28;20173;-70
2022/03/23 08:17:12;;;;;;;21.53;16.40;;;9.60;92.70;;;;;;4969357;28;20177;-71
2022/03/23 08:19:38;;;;;;;19.87;16.33;;;9.80;92.60;;;;;;4968949;28;20458;-70
2022/03/23 08:22:04;;;;;;;21.90;16.30;;;9.90;92.40;;;;;;4968952;28;20813;-71
2022/03/23 08:24:30;;;;;;;23.27;17.77;;;9.90;92.20;;;;;;4969097;28;20235;-70
2022/03/23 08:26:55;;;;;;;21.90;16.80;;;10.10;91.50;;;;;;4951518;28;20416;-70
2022/03/23 08:29:21;;;;;;;21.20;17.17;;;10.10;91.30;;;;;;4969092;28;20196;-71
2022/03/23 08:31:47;;;;;;;20.00;16.20;;;10.20;91.10;;;;;;4969214;28;20185;-71
2022/03/23 08:34:13;;;;;;;21.30;17.90;;;10.30;90.90;;;;;;4968677;28;20299;-70
2022/03/23 08:36:38;;;;;;;21.97;18.17;;;10.50;90.80;;;;;;4969368;28;20423;-71
2022/03/23 08:39:05;;;;;;;27.27;17.30;;;10.60;90.60;;;;;;4969107;28;20714;-70
2022/03/23 08:41:30;;;;;;;23.37;17.33;;;10.70;90.40;;;;;;4968707;28;20448;-71
2022/03/23 08:43:56;;;;;;;23.97;17.20;;;10.80;90.20;;;;;;4969069;28;20456;-71
2022/03/23 08:46:22;;;;;;;24.40;18.87;;;10.90;90.00;;;;;;4969039;28;20187;-70
2022/03/23 08:48:49;;;;;;;22.40;17.10;;;11.00;89.90;;;;;;4968867;28;20287;-71
2022/03/23 08:51:15;;;;;;;20.73;16.30;;;11.20;89.90;;;;;;4973883;28;20231;-70
2022/03/23 08:53:42;;;;;;;23.37;19.00;;;11.30;89.50;;;;;;4973829;28;20965;-71
2022/03/23 08:56:11;;;;;;;20.50;17.40;;;11.40;89.40;;;;;;4959343;28;20428;-71
2022/03/23 08:58:37;;;;;;;22.30;18.10;;;11.60;89.10;;;;;;4973066;28;20468;-70
2022/03/23 09:01:04;;;;;;;19.23;16.23;;;11.60;88.60;;;;;;4978108;28;20467;-70
2022/03/23 09:03:29;;;;;;;26.10;18.70;;;11.70;88.10;;;;;;4977220;28;20431;-71
2022/03/23 09:05:55;;;;;;;26.50;18.33;;;11.80;87.80;;;;;;4981253;28;20419;-70
2022/03/23 09:08:20;;;;;;;26.83;18.53;;;12.00;87.40;;;;;;4991919;28;20208;-69
2022/03/23 09:10:46;;;;;;;21.27;18.03;;;12.10;86.50;;;;;;4991970;28;20188;-69
2022/03/23 09:13:11;;;;;;;25.13;18.70;;;12.30;85.90;;;;;;4991852;28;20200;-70
2022/03/23 09:15:37;;;;;;;22.70;18.90;;;12.40;84.30;;;;;;4991690;28;20191;-70
2022/03/23 09:18:04;;;;;;;24.30;18.07;;;12.50;82.90;;;;;;4991337;28;20218;-69
2022/03/23 09:20:32;;;;;;;22.00;17.40;;;12.70;82.60;;;;;;4980228;28;20227;-71
2022/03/23 09:22:58;;;;;;;21.53;16.60;;;12.70;81.20;;;;;;4991000;28;20538;-70
2022/03/23 09:25:24;;;;;;;21.50;17.83;;;12.80;79.90;;;;;;4987131;28;20467;-71
2022/03/23 09:27:51;;;;;;;25.27;18.57;;;12.90;78.60;;;;;;4989986;28;20490;-69
2022/03/23 09:30:18;;;;;;;21.17;18.03;;;13.10;78.30;;;;;;4972933;28;20481;-71
2022/03/23 09:32:46;;;;;;;24.00;19.47;;;13.20;77.10;;;;;;4985191;28;20463;-70
2022/03/23 09:35:12;;;;;;;21.03;17.40;;;13.40;75.50;;;;;;4989742;28;20979;-70
2022/03/23 09:37:57;;;;;;;22.60;18.53;;;13.60;75.00;;;;;;4990693;28;20466;-71
2022/03/23 09:40:27;;;;;;;20.50;17.30;;;13.70;73.90;;;;;;4990526;28;20447;-71
2022/03/23 09:42:55;;;;;;;22.50;18.73;;;13.90;72.60;;;;;;4973343;28;20490;-71
2022/03/23 09:45:46;;;;;;;20.47;17.43;;;14.00;72.20;;;;;;4973129;28;20459;-71
2022/03/23 09:48:11;;;;;;;21.20;18.17;;;14.10;71.20;;;;;;4989706;28;20465;-71
2022/03/23 09:50:41;;;;;;;21.50;16.63;;;14.30;70.30;;;;;;4989595;28;20455;-70
2022/03/23 09:53:08;;;;;;;22.90;18.27;;;14.40;67.20;;;;;;4991013;28;20481;-70
2022/03/23 09:55:34;;;;;;;22.53;18.90;;;14.60;66.00;;;;;;4990637;28;20430;-71
2022/03/23 09:58:01;;;;;;;21.80;18.43;;;14.60;64.00;;;;;;4991103;28;20508;-71
2022/03/23 10:00:37;;;;;;;23.00;18.50;;;14.70;63.20;;;;;;4991291;28;20187;-71
2022/03/23 10:03:12;;;;;;;20.47;17.43;;;14.80;62.60;;;;;;4982873;28;20448;-71
2022/03/23 10:05:58;;;;;;;23.23;17.90;;;15.00;62.60;;;;;;4980906;28;20412;-71
2022/03/23 10:09:04;;;;;;;24.23;18.37;;;15.00;60.20;;;;;;4991168;28;21059;-71
2022/03/23 10:12:07;;;;;;;25.40;19.20;;;15.00;58.70;;;;;;4990283;28;20427;-71
2022/03/23 10:14:45;;;;;;;22.70;17.97;;;15.10;59.40;;;;;;4991262;28;20419;-72
2022/03/23 10:17:34;;;;;;;20.80;18.10;;;15.20;59.20;;;;;;4990677;28;20425;-71
2022/03/23 10:20:00;;;;;;;21.37;18.67;;;15.30;57.90;;;;;;4990790;28;20415;-72
2022/03/23 10:22:27;;;;;;;22.33;18.57;;;15.40;57.20;;;;;;4990436;28;20970;-72
2022/03/23 10:24:53;;;;;;;24.03;19.40;;;15.50;57.70;;;;;;4991129;28;20855;-72
2022/03/23 10:27:22;;;;;;;23.37;17.87;;;15.60;58.50;;;;;;4990597;28;20418;-71
2022/03/23 10:29:52;;;;;;;20.50;18.33;;;15.70;58.20;;;;;;4990236;28;20172;-71
2022/03/23 10:32:20;;;;;;;23.33;18.63;;;15.80;57.90;;;;;;4989826;28;20411;-71
2022/03/23 10:34:54;;;;;;;23.10;18.10;;;15.90;57.70;;;;;;4990153;28;20435;-71
2022/03/23 10:37:33;;;;;;;19.10;16.90;;;16.00;56.90;;;;;;4990010;28;20502;-72
2022/03/23 10:40:02;;;;;;;21.30;17.83;;;16.20;56.90;;;;;;4989865;28;20418;-72
2022/03/23 10:42:32;;;;;;;21.17;17.83;;;16.20;55.10;;;;;;4989300;28;20419;-71
2022/03/23 10:45:19;;;;;;;23.53;17.83;;;16.10;54.50;;;;;;4990076;28;20426;-71
2022/03/23 10:47:45;;;;;;;21.00;17.87;;;16.30;55.10;;;;;;4989400;28;20439;-71
2022/03/23 10:50:16;;;;;;;19.57;16.93;;;16.30;54.90;;;;;;4989889;28;20530;-71
2022/03/23 10:52:55;;;;;;;21.47;18.10;;;16.30;54.80;;;;;;4989505;28;20529;-71
2022/03/23 10:55:23;;;;;;;22.77;17.63;;;16.30;53.40;;;;;;4989802;28;20439;-71
2022/03/23 11:00:29;;;;;;;22.80;17.43;;;16.40;53.60;;;;;;5050020;22;20492;-68
2022/03/23 11:02:55;;;;;;;19.90;17.33;;;16.50;53.20;;;;;;5023744;28;20873;-68
2022/03/23 11:05:34;;;;;;;20.03;17.90;;;16.50;53.20;;;;;;5046126;28;20416;-69
2022/03/23 11:08:21;;;;;;;19.37;17.27;;;16.60;52.90;;;;;;5043682;28;20189;-68
2022/03/23 11:16:36;;;;;;;18.37;15.13;;;16.50;50.90;;;;;;5021869;28;20428;-69
2022/03/23 11:19:18;;;;;;;17.17;14.80;;;16.70;51.20;;;;;;5033716;28;20988;-69
2022/03/23 11:22:05;;;;;;;16.73;14.97;;;16.70;50.60;;;;;;5051314;28;20413;-69
2022/03/23 11:24:40;;;;;;;19.00;15.60;;;16.50;50.40;;;;;;5051213;28;20988;-69
2022/03/23 11:27:08;;;;;;;21.43;16.40;;;16.50;50.10;;;;;;5032275;28;20865;-69
2022/03/23 11:29:37;;;;;;;19.63;16.00;;;16.40;50.10;;;;;;5031681;28;20451;-69
2022/03/23 11:32:08;;;;;;;19.00;16.07;;;16.50;49.70;;;;;;5049493;28;20427;-68
2022/03/23 11:34:37;;;;;;;17.90;15.80;;;16.60;49.10;;;;;;5050625;28;20440;-69
2022/03/23 11:37:04;;;;;;;18.20;15.90;;;16.70;49.40;;;;;;5050556;28;20967;-68
2022/03/23 11:39:30;;;;;;;24.03;16.70;;;16.70;49.90;;;;;;5050474;28;20471;-69
2022/03/23 11:41:58;;;;;;;21.77;17.20;;;16.60;49.50;;;;;;5049598;28;20412;-69
2022/03/23 11:44:25;;;;;;;21.47;16.40;;;16.70;49.00;;;;;;5050705;28;20419;-69
2022/03/23 11:46:55;;;;;;;18.90;14.87;;;16.70;49.30;;;;;;5050569;28;20413;-70
2022/03/23 11:49:41;;;;;;;21.87;17.10;;;16.50;49.40;;;;;;5050994;28;20444;-68
2022/03/23 11:52:19;;;;;;;20.10;15.47;;;16.40;49.30;;;;;;5049787;28;20421;-66
2022/03/23 11:57:56;;;;;;;19.77;15.27;;;16.60;49.50;;;;;;5049744;28;21024;-67
2022/03/23 12:00:26;;;;;;;18.63;15.00;;;16.80;49.30;;;;;;5048305;28;20581;-68
2022/03/23 12:02:53;;;;;;;20.00;14.93;;;16.80;49.00;;;;;;5029551;28;20841;-68
2022/03/23 12:05:26;;;;;;;20.43;15.57;;;16.80;48.70;;;;;;5029711;28;20418;-68
2022/03/23 12:07:52;;;;;;;17.43;15.03;;;17.00;48.70;;;;;;5029823;28;20455;-68
2022/03/23 12:10:28;;;;;;;20.90;16.80;;;17.00;48.40;;;;;;5029370;28;20437;-67
2022/03/23 12:12:54;;;;;;;20.13;14.93;;;16.90;48.30;;;;;;5011768;28;20818;-67
2022/03/23 12:15:19;;;;;;;18.40;14.67;;;17.00;48.50;;;;;;5029114;28;20425;-68
2022/03/23 12:18:02;;;;;;;21.30;17.97;;;17.00;47.30;;;;;;5029807;28;20490;-68
2022/03/23 12:20:40;;;;;;;20.70;17.03;;;17.00;48.70;;;;;;5013076;28;20437;-68
2022/03/23 12:23:14;;;;;;;21.93;16.90;;;17.00;49.00;;;;;;5013180;28;20897;-68
2022/03/23 12:26:18;;;;;;;21.00;17.50;;;17.00;49.10;;;;;;5029589;28;20405;-69
2022/03/23 12:28:50;;;;;;;23.50;18.20;;;17.00;48.70;;;;;;5030243;28;20436;-68
2022/03/23 12:31:16;;;;;;;23.40;17.53;;;17.00;48.70;;;;;;5011494;28;20840;-69
2022/03/23 12:34:12;;;;;;;26.10;20.27;;;17.00;49.20;;;;;;5029345;28;20417;-68
2022/03/23 12:36:56;;;;;;;20.93;18.67;;;16.90;49.10;;;;;;5032203;28;20401;-68
2022/03/23 12:39:32;;;;;;;22.80;17.80;;;16.90;49.50;;;;;;5037029;28;20473;-69
2022/03/23 12:42:01;;;;;;;22.03;17.40;;;17.00;49.00;;;;;;5031390;28;20421;-69
2022/03/23 12:44:32;;;;;;;23.57;17.73;;;17.00;49.00;;;;;;5012734;28;20418;-68
2022/03/23 12:47:07;;;;;;;21.90;17.37;;;17.00;48.70;;;;;;5030228;28;20432;-66
2022/03/23 12:58:10;;;;;;;18.17;16.20;;;17.00;47.90;;;;;;5029491;28;20452;-67
2022/03/23 13:00:45;;;;;;;22.50;18.03;;;17.00;47.90;;;;;;5030057;28;20406;-68
2022/03/23 13:03:11;;;;;;;21.83;17.27;;;16.90;48.40;;;;;;5029400;28;20413;-68
2022/03/23 13:06:00;;;;;;;20.30;16.83;;;17.00;47.90;;;;;;5030249;28;20428;-67
2022/03/23 13:08:33;;;;;;;22.00;17.37;;;17.00;48.20;;;;;;5028912;28;20963;-68
2022/03/23 13:11:07;;;;;;;21.83;16.70;;;17.00;47.70;;;;;;5011266;28;20503;-68